sensor_id;sensor_type;location;lat;lon;timestamp;P1;durP1;ratioP1;P2;durP2;ratioP2
18879;SDS011;9572;52.378;13.404;2023-08-21T00:01:04;9.15;;;7.93;;
18879;SDS011;9572;52.378;13.404;2023-08-21T00:03:31;9.18;;;7.45;;
18879;SDS011;9572;52.378;13.404;2023-08-21T00:05:59;10.00;;;7.70;;
18879;SDS011;9572;52.378;13.404;2023-08-21T00:08:25;10.25;;;8.18;;
18879;SDS011;9572;52.378;13.404;2023-08-21T00:10:52;9.15;;;7.82;;
18879;SDS011;9572;52.378;13.404;2023-08-21T00:13:19;12.10;;;8.13;;
18879;SDS011;9572;52.378;13.404;2023-08-21T00:15:46;9.45;;;8.23;;
18879;SDS011;9572;52.378;13.404;2023-08-21T00:18:14;11.75;;;8.38;;
18879;SDS011;9572;52.378;13.404;2023-08-21T00:20:45;9.70;;;8.60;;
18879;SDS011;9572;52.378;13.404;2023-08-21T00:23:12;13.65;;;8.95;;
18879;SDS011;9572;52.378;13.404;2023-08-21T00:25:39;9.45;;;8.45;;
18879;SDS011;9572;52.378;13.404;2023-08-21T00:28:06;11.18;;;8.60;;
18879;SDS011;9572;52.378;13.404;2023-08-21T00:30:33;10.15;;;8.75;;
18879;SDS011;9572;52.378;13.404;2023-08-21T00:33:00;12.43;;;8.52;;
18879;SDS011;9572;52.378;13.404;2023-08-21T00:35:28;12.52;;;9.00;;
18879;SDS011;9572;52.378;13.404;2023-08-21T00:37:56;10.77;;;8.32;;
18879;SDS011;9572;52.378;13.404;2023-08-21T00:40:23;11.02;;;8.63;;
18879;SDS011;9572;52.378;13.404;2023-08-21T00:42:50;10.82;;;8.52;;
18879;SDS011;9572;52.378;13.404;2023-08-21T00:45:17;11.50;;;8.32;;
18879;SDS011;9572;52.378;13.404;2023-08-21T00:47:46;10.52;;;8.52;;
18879;SDS011;9572;52.378;13.404;2023-08-21T00:50:14;10.73;;;8.30;;
18879;SDS011;9572;52.378;13.404;2023-08-21T00:52:43;11.73;;;8.15;;
18879;SDS011;9572;52.378;13.404;2023-08-21T00:55:11;10.38;;;8.25;;
18879;SDS011;9572;52.378;13.404;2023-08-21T00:57:39;12.20;;;8.52;;
18879;SDS011;9572;52.378;13.404;2023-08-21T01:00:07;10.77;;;8.60;;
18879;SDS011;9572;52.378;13.404;2023-08-21T01:02:36;16.02;;;8.93;;
18879;SDS011;9572;52.378;13.404;2023-08-21T01:05:03;9.48;;;8.10;;
18879;SDS011;9572;52.378;13.404;2023-08-21T01:07:31;12.43;;;9.38;;
18879;SDS011;9572;52.378;13.404;2023-08-21T01:10:05;11.80;;;9.15;;
18879;SDS011;9572;52.378;13.404;2023-08-21T01:12:40;10.75;;;8.68;;
18879;SDS011;9572;52.378;13.404;2023-08-21T01:15:14;12.45;;;9.07;;
18879;SDS011;9572;52.378;13.404;2023-08-21T01:17:42;14.15;;;8.68;;
18879;SDS011;9572;52.378;13.404;2023-08-21T01:20:12;9.65;;;8.10;;
18879;SDS011;9572;52.378;13.404;2023-08-21T01:22:41;8.88;;;8.00;;
18879;SDS011;9572;52.378;13.404;2023-08-21T01:25:12;11.10;;;8.30;;
18879;SDS011;9572;52.378;13.404;2023-08-21T01:27:42;9.88;;;7.88;;
18879;SDS011;9572;52.378;13.404;2023-08-21T01:30:14;9.07;;;7.90;;
18879;SDS011;9572;52.378;13.404;2023-08-21T01:32:45;9.32;;;8.30;;
18879;SDS011;9572;52.378;13.404;2023-08-21T01:35:18;12.00;;;8.88;;
18879;SDS011;9572;52.378;13.404;2023-08-21T01:37:46;13.43;;;8.98;;
18879;SDS011;9572;52.378;13.404;2023-08-21T01:40:21;13.13;;;8.77;;
18879;SDS011;9572;52.378;13.404;2023-08-21T01:42:48;9.73;;;8.10;;
18879;SDS011;9572;52.378;13.404;2023-08-21T01:45:15;10.70;;;8.77;;
18879;SDS011;9572;52.378;13.404;2023-08-21T01:47:42;10.20;;;8.52;;
18879;SDS011;9572;52.378;13.404;2023-08-21T01:50:09;11.45;;;8.15;;
18879;SDS011;9572;52.378;13.404;2023-08-21T01:52:36;10.85;;;8.18;;
18879;SDS011;9572;52.378;13.404;2023-08-21T01:55:06;8.77;;;7.88;;
18879;SDS011;9572;52.378;13.404;2023-08-21T01:57:38;9.38;;;7.53;;
18879;SDS011;9572;52.378;13.404;2023-08-21T02:00:07;9.38;;;8.30;;
18879;SDS011;9572;52.378;13.404;2023-08-21T02:02:35;9.82;;;8.68;;
18879;SDS011;9572;52.378;13.404;2023-08-21T02:05:02;10.05;;;8.05;;
18879;SDS011;9572;52.378;13.404;2023-08-21T02:07:30;11.35;;;7.35;;
18879;SDS011;9572;52.378;13.404;2023-08-21T02:09:57;10.65;;;8.55;;
18879;SDS011;9572;52.378;13.404;2023-08-21T02:12:25;9.50;;;7.88;;
18879;SDS011;9572;52.378;13.404;2023-08-21T02:14:54;8.88;;;7.72;;
18879;SDS011;9572;52.378;13.404;2023-08-21T02:17:21;11.60;;;8.32;;
18879;SDS011;9572;52.378;13.404;2023-08-21T02:19:48;9.95;;;8.85;;
18879;SDS011;9572;52.378;13.404;2023-08-21T02:22:15;9.63;;;8.25;;
18879;SDS011;9572;52.378;13.404;2023-08-21T02:24:42;9.30;;;8.05;;
18879;SDS011;9572;52.378;13.404;2023-08-21T02:27:09;10.07;;;8.23;;
18879;SDS011;9572;52.378;13.404;2023-08-21T02:29:36;8.75;;;7.70;;
18879;SDS011;9572;52.378;13.404;2023-08-21T02:32:05;9.73;;;8.02;;
18879;SDS011;9572;52.378;13.404;2023-08-21T02:34:32;9.00;;;7.82;;
18879;SDS011;9572;52.378;13.404;2023-08-21T02:36:59;8.95;;;7.57;;
18879;SDS011;9572;52.378;13.404;2023-08-21T02:39:27;9.20;;;7.72;;
18879;SDS011;9572;52.378;13.404;2023-08-21T02:41:54;8.23;;;7.13;;
18879;SDS011;9572;52.378;13.404;2023-08-21T02:44:21;10.35;;;8.15;;
18879;SDS011;9572;52.378;13.404;2023-08-21T02:46:49;11.30;;;8.60;;
18879;SDS011;9572;52.378;13.404;2023-08-21T02:49:25;8.10;;;7.30;;
18879;SDS011;9572;52.378;13.404;2023-08-21T02:51:52;14.52;;;8.50;;
18879;SDS011;9572;52.378;13.404;2023-08-21T02:54:19;9.25;;;7.93;;
18879;SDS011;9572;52.378;13.404;2023-08-21T02:56:46;11.00;;;8.45;;
18879;SDS011;9572;52.378;13.404;2023-08-21T02:59:13;8.82;;;7.28;;
18879;SDS011;9572;52.378;13.404;2023-08-21T03:01:40;9.73;;;8.07;;
18879;SDS011;9572;52.378;13.404;2023-08-21T03:04:07;10.98;;;8.23;;
18879;SDS011;9572;52.378;13.404;2023-08-21T03:06:36;9.77;;;8.10;;
18879;SDS011;9572;52.378;13.404;2023-08-21T03:09:03;10.48;;;7.72;;
18879;SDS011;9572;52.378;13.404;2023-08-21T03:11:30;8.43;;;7.50;;
18879;SDS011;9572;52.378;13.404;2023-08-21T03:13:57;11.77;;;8.35;;
18879;SDS011;9572;52.378;13.404;2023-08-21T03:16:24;10.98;;;8.10;;
18879;SDS011;9572;52.378;13.404;2023-08-21T03:18:54;10.20;;;8.50;;
18879;SDS011;9572;52.378;13.404;2023-08-21T03:21:24;9.27;;;8.38;;
18879;SDS011;9572;52.378;13.404;2023-08-21T03:23:54;9.60;;;8.13;;
18879;SDS011;9572;52.378;13.404;2023-08-21T03:26:22;9.45;;;8.23;;
18879;SDS011;9572;52.378;13.404;2023-08-21T03:28:49;11.68;;;7.95;;
18879;SDS011;9572;52.378;13.404;2023-08-21T03:31:17;9.50;;;8.10;;
18879;SDS011;9572;52.378;13.404;2023-08-21T03:33:44;8.60;;;7.70;;
18879;SDS011;9572;52.378;13.404;2023-08-21T03:36:12;8.75;;;7.85;;
18879;SDS011;9572;52.378;13.404;2023-08-21T03:38:39;9.27;;;8.07;;
18879;SDS011;9572;52.378;13.404;2023-08-21T03:41:08;9.32;;;8.07;;
18879;SDS011;9572;52.378;13.404;2023-08-21T03:43:35;9.23;;;8.25;;
18879;SDS011;9572;52.378;13.404;2023-08-21T03:46:06;10.20;;;8.25;;
18879;SDS011;9572;52.378;13.404;2023-08-21T03:48:33;10.48;;;7.80;;
18879;SDS011;9572;52.378;13.404;2023-08-21T03:51:00;9.95;;;8.30;;
18879;SDS011;9572;52.378;13.404;2023-08-21T03:53:27;9.93;;;7.80;;
18879;SDS011;9572;52.378;13.404;2023-08-21T03:55:54;8.65;;;7.68;;
18879;SDS011;9572;52.378;13.404;2023-08-21T03:58:22;12.77;;;8.45;;
18879;SDS011;9572;52.378;13.404;2023-08-21T04:00:50;9.50;;;7.65;;
18879;SDS011;9572;52.378;13.404;2023-08-21T04:03:17;9.32;;;7.80;;
18879;SDS011;9572;52.378;13.404;2023-08-21T04:05:44;8.75;;;7.65;;
18879;SDS011;9572;52.378;13.404;2023-08-21T04:08:12;13.90;;;9.10;;
18879;SDS011;9572;52.378;13.404;2023-08-21T04:10:39;10.00;;;7.97;;
18879;SDS011;9572;52.378;13.404;2023-08-21T04:13:07;12.73;;;9.02;;
18879;SDS011;9572;52.378;13.404;2023-08-21T04:15:43;9.10;;;7.90;;
18879;SDS011;9572;52.378;13.404;2023-08-21T04:18:11;10.60;;;7.93;;
18879;SDS011;9572;52.378;13.404;2023-08-21T04:20:38;13.15;;;8.90;;
18879;SDS011;9572;52.378;13.404;2023-08-21T04:23:05;8.90;;;8.00;;
18879;SDS011;9572;52.378;13.404;2023-08-21T04:25:32;10.00;;;8.05;;
18879;SDS011;9572;52.378;13.404;2023-08-21T04:27:59;8.85;;;7.75;;
18879;SDS011;9572;52.378;13.404;2023-08-21T04:30:26;9.88;;;7.85;;
18879;SDS011;9572;52.378;13.404;2023-08-21T04:32:55;9.13;;;7.90;;
18879;SDS011;9572;52.378;13.404;2023-08-21T04:35:22;9.18;;;8.07;;
18879;SDS011;9572;52.378;13.404;2023-08-21T04:37:49;8.68;;;7.82;;
18879;SDS011;9572;52.378;13.404;2023-08-21T04:40:16;13.20;;;8.60;;
18879;SDS011;9572;52.378;13.404;2023-08-21T04:42:45;9.38;;;8.10;;
18879;SDS011;9572;52.378;13.404;2023-08-21T04:45:13;8.93;;;8.02;;
18879;SDS011;9572;52.378;13.404;2023-08-21T04:47:40;10.70;;;8.93;;
18879;SDS011;9572;52.378;13.404;2023-08-21T04:50:08;11.13;;;8.55;;
18879;SDS011;9572;52.378;13.404;2023-08-21T04:52:35;10.63;;;8.35;;
18879;SDS011;9572;52.378;13.404;2023-08-21T04:55:03;9.65;;;8.35;;
18879;SDS011;9572;52.378;13.404;2023-08-21T04:57:32;12.07;;;9.48;;
18879;SDS011;9572;52.378;13.404;2023-08-21T04:59:59;9.40;;;8.25;;
18879;SDS011;9572;52.378;13.404;2023-08-21T05:02:29;12.65;;;8.23;;
18879;SDS011;9572;52.378;13.404;2023-08-21T05:04:56;11.25;;;9.10;;
18879;SDS011;9572;52.378;13.404;2023-08-21T05:07:24;9.13;;;8.18;;
18879;SDS011;9572;52.378;13.404;2023-08-21T05:09:52;10.88;;;8.25;;
18879;SDS011;9572;52.378;13.404;2023-08-21T05:12:19;9.60;;;8.15;;
18879;SDS011;9572;52.378;13.404;2023-08-21T05:14:47;10.40;;;8.93;;
18879;SDS011;9572;52.378;13.404;2023-08-21T05:17:20;10.20;;;8.38;;
18879;SDS011;9572;52.378;13.404;2023-08-21T05:19:47;10.43;;;8.27;;
18879;SDS011;9572;52.378;13.404;2023-08-21T05:22:14;13.88;;;9.15;;
18879;SDS011;9572;52.378;13.404;2023-08-21T05:24:43;14.77;;;8.82;;
18879;SDS011;9572;52.378;13.404;2023-08-21T05:27:10;12.07;;;8.90;;
18879;SDS011;9572;52.378;13.404;2023-08-21T05:29:37;11.95;;;8.95;;
18879;SDS011;9572;52.378;13.404;2023-08-21T05:32:07;11.43;;;8.70;;
18879;SDS011;9572;52.378;13.404;2023-08-21T05:34:35;12.15;;;8.40;;
18879;SDS011;9572;52.378;13.404;2023-08-21T05:37:02;12.40;;;8.77;;
18879;SDS011;9572;52.378;13.404;2023-08-21T05:39:29;16.67;;;9.68;;
18879;SDS011;9572;52.378;13.404;2023-08-21T05:41:59;13.77;;;8.88;;
18879;SDS011;9572;52.378;13.404;2023-08-21T05:44:26;13.60;;;8.18;;
18879;SDS011;9572;52.378;13.404;2023-08-21T05:46:53;10.23;;;8.30;;
18879;SDS011;9572;52.378;13.404;2023-08-21T05:49:20;10.90;;;8.52;;
18879;SDS011;9572;52.378;13.404;2023-08-21T05:51:47;14.50;;;9.00;;
18879;SDS011;9572;52.378;13.404;2023-08-21T05:54:15;10.50;;;7.63;;
18879;SDS011;9572;52.378;13.404;2023-08-21T05:56:42;13.45;;;9.15;;
18879;SDS011;9572;52.378;13.404;2023-08-21T05:59:11;11.13;;;7.85;;
18879;SDS011;9572;52.378;13.404;2023-08-21T06:01:38;11.82;;;9.02;;
18879;SDS011;9572;52.378;13.404;2023-08-21T06:04:05;9.40;;;8.38;;
18879;SDS011;9572;52.378;13.404;2023-08-21T06:06:32;11.35;;;8.90;;
18879;SDS011;9572;52.378;13.404;2023-08-21T06:08:59;11.00;;;8.50;;
18879;SDS011;9572;52.378;13.404;2023-08-21T06:11:26;15.50;;;8.98;;
18879;SDS011;9572;52.378;13.404;2023-08-21T06:13:53;12.32;;;8.82;;
18879;SDS011;9572;52.378;13.404;2023-08-21T06:16:22;10.35;;;8.85;;
18879;SDS011;9572;52.378;13.404;2023-08-21T06:18:49;10.15;;;8.27;;
18879;SDS011;9572;52.378;13.404;2023-08-21T06:21:17;14.25;;;9.48;;
18879;SDS011;9572;52.378;13.404;2023-08-21T06:23:46;11.25;;;8.23;;
18879;SDS011;9572;52.378;13.404;2023-08-21T06:26:13;13.52;;;8.80;;
18879;SDS011;9572;52.378;13.404;2023-08-21T06:28:40;11.57;;;8.73;;
18879;SDS011;9572;52.378;13.404;2023-08-21T06:31:08;11.43;;;8.32;;
18879;SDS011;9572;52.378;13.404;2023-08-21T06:33:40;27.17;;;9.50;;
18879;SDS011;9572;52.378;13.404;2023-08-21T06:36:07;9.45;;;8.15;;
18879;SDS011;9572;52.378;13.404;2023-08-21T06:38:39;9.20;;;7.90;;
18879;SDS011;9572;52.378;13.404;2023-08-21T06:41:07;10.45;;;8.07;;
18879;SDS011;9572;52.378;13.404;2023-08-21T06:43:36;12.10;;;7.93;;
18879;SDS011;9572;52.378;13.404;2023-08-21T06:46:03;9.73;;;8.10;;
18879;SDS011;9572;52.378;13.404;2023-08-21T06:48:30;10.45;;;8.93;;
18879;SDS011;9572;52.378;13.404;2023-08-21T06:51:00;8.77;;;7.88;;
18879;SDS011;9572;52.378;13.404;2023-08-21T06:53:27;10.70;;;8.70;;
18879;SDS011;9572;52.378;13.404;2023-08-21T06:55:55;14.50;;;9.40;;
18879;SDS011;9572;52.378;13.404;2023-08-21T06:58:21;15.68;;;10.05;;
18879;SDS011;9572;52.378;13.404;2023-08-21T07:00:49;10.73;;;9.18;;
18879;SDS011;9572;52.378;13.404;2023-08-21T07:03:16;13.18;;;9.75;;
18879;SDS011;9572;52.378;13.404;2023-08-21T07:05:46;11.73;;;10.35;;
18879;SDS011;9572;52.378;13.404;2023-08-21T07:08:15;15.13;;;10.80;;
18879;SDS011;9572;52.378;13.404;2023-08-21T07:10:42;15.57;;;9.02;;
18879;SDS011;9572;52.378;13.404;2023-08-21T07:13:09;11.38;;;8.43;;
18879;SDS011;9572;52.378;13.404;2023-08-21T07:15:36;11.43;;;7.25;;
18879;SDS011;9572;52.378;13.404;2023-08-21T07:18:03;9.38;;;7.05;;
18879;SDS011;9572;52.378;13.404;2023-08-21T07:20:30;8.20;;;5.90;;
18879;SDS011;9572;52.378;13.404;2023-08-21T07:22:57;6.30;;;5.32;;
18879;SDS011;9572;52.378;13.404;2023-08-21T07:25:25;7.85;;;5.15;;
18879;SDS011;9572;52.378;13.404;2023-08-21T07:27:53;7.47;;;4.07;;
18879;SDS011;9572;52.378;13.404;2023-08-21T07:30:20;9.48;;;4.82;;
18879;SDS011;9572;52.378;13.404;2023-08-21T07:32:48;7.20;;;4.78;;
18879;SDS011;9572;52.378;13.404;2023-08-21T07:35:15;7.22;;;4.88;;
18879;SDS011;9572;52.378;13.404;2023-08-21T07:37:43;11.00;;;5.55;;
18879;SDS011;9572;52.378;13.404;2023-08-21T07:40:10;8.27;;;5.50;;
18879;SDS011;9572;52.378;13.404;2023-08-21T07:42:39;7.03;;;4.93;;
18879;SDS011;9572;52.378;13.404;2023-08-21T07:45:06;7.57;;;4.82;;
18879;SDS011;9572;52.378;13.404;2023-08-21T07:47:34;7.13;;;4.75;;
18879;SDS011;9572;52.378;13.404;2023-08-21T07:50:00;11.38;;;4.95;;
18879;SDS011;9572;52.378;13.404;2023-08-21T07:52:27;7.82;;;4.07;;
18879;SDS011;9572;52.378;13.404;2023-08-21T07:54:54;7.55;;;4.85;;
18879;SDS011;9572;52.378;13.404;2023-08-21T07:57:21;7.97;;;4.55;;
18879;SDS011;9572;52.378;13.404;2023-08-21T07:59:50;6.13;;;4.40;;
18879;SDS011;9572;52.378;13.404;2023-08-21T08:02:17;7.63;;;4.72;;
18879;SDS011;9572;52.378;13.404;2023-08-21T08:04:44;5.45;;;4.20;;
18879;SDS011;9572;52.378;13.404;2023-08-21T08:07:10;5.00;;;3.92;;
18879;SDS011;9572;52.378;13.404;2023-08-21T08:09:37;9.27;;;4.22;;
18879;SDS011;9572;52.378;13.404;2023-08-21T08:12:05;6.88;;;4.05;;
18879;SDS011;9572;52.378;13.404;2023-08-21T08:14:33;6.10;;;3.55;;
18879;SDS011;9572;52.378;13.404;2023-08-21T08:17:01;6.65;;;3.55;;
18879;SDS011;9572;52.378;13.404;2023-08-21T08:19:28;6.18;;;3.33;;
18879;SDS011;9572;52.378;13.404;2023-08-21T08:21:55;6.97;;;3.33;;
18879;SDS011;9572;52.378;13.404;2023-08-21T08:24:22;6.30;;;3.50;;
18879;SDS011;9572;52.378;13.404;2023-08-21T08:26:49;7.70;;;3.45;;
18879;SDS011;9572;52.378;13.404;2023-08-21T08:29:16;7.35;;;2.72;;
18879;SDS011;9572;52.378;13.404;2023-08-21T08:31:43;5.80;;;2.63;;
18879;SDS011;9572;52.378;13.404;2023-08-21T08:34:13;4.72;;;2.40;;
18879;SDS011;9572;52.378;13.404;2023-08-21T08:36:43;6.60;;;2.88;;
18879;SDS011;9572;52.378;13.404;2023-08-21T08:39:10;3.92;;;2.53;;
18879;SDS011;9572;52.378;13.404;2023-08-21T08:41:38;8.77;;;3.20;;
18879;SDS011;9572;52.378;13.404;2023-08-21T08:44:10;5.18;;;3.05;;
18879;SDS011;9572;52.378;13.404;2023-08-21T08:46:39;4.55;;;2.70;;
18879;SDS011;9572;52.378;13.404;2023-08-21T08:49:06;7.95;;;2.95;;
18879;SDS011;9572;52.378;13.404;2023-08-21T08:51:35;10.88;;;2.70;;
18879;SDS011;9572;52.378;13.404;2023-08-21T08:54:06;4.05;;;2.17;;
18879;SDS011;9572;52.378;13.404;2023-08-21T08:56:33;4.32;;;2.00;;
18879;SDS011;9572;52.378;13.404;2023-08-21T08:59:00;4.75;;;2.10;;
18879;SDS011;9572;52.378;13.404;2023-08-21T09:01:28;3.55;;;2.03;;
18879;SDS011;9572;52.378;13.404;2023-08-21T09:03:55;2.50;;;1.40;;
18879;SDS011;9572;52.378;13.404;2023-08-21T09:06:22;6.78;;;1.80;;
18879;SDS011;9572;52.378;13.404;2023-08-21T09:09:02;5.45;;;1.58;;
18879;SDS011;9572;52.378;13.404;2023-08-21T09:11:29;5.13;;;1.50;;
18879;SDS011;9572;52.378;13.404;2023-08-21T09:13:56;3.42;;;1.67;;
18879;SDS011;9572;52.378;13.404;2023-08-21T09:16:25;4.60;;;1.80;;
18879;SDS011;9572;52.378;13.404;2023-08-21T09:18:53;3.17;;;1.88;;
18879;SDS011;9572;52.378;13.404;2023-08-21T09:21:22;5.00;;;1.88;;
18879;SDS011;9572;52.378;13.404;2023-08-21T09:23:57;2.53;;;1.65;;
18879;SDS011;9572;52.378;13.404;2023-08-21T09:26:30;7.20;;;1.98;;
18879;SDS011;9572;52.378;13.404;2023-08-21T09:28:58;4.22;;;2.10;;
18879;SDS011;9572;52.378;13.404;2023-08-21T09:31:30;4.32;;;1.77;;
18879;SDS011;9572;52.378;13.404;2023-08-21T09:33:59;3.85;;;1.90;;
18879;SDS011;9572;52.378;13.404;2023-08-21T09:36:30;3.55;;;1.98;;
18879;SDS011;9572;52.378;13.404;2023-08-21T09:38:57;5.50;;;2.30;;
18879;SDS011;9572;52.378;13.404;2023-08-21T09:41:32;3.85;;;2.60;;
18879;SDS011;9572;52.378;13.404;2023-08-21T09:43:59;3.00;;;1.77;;
18879;SDS011;9572;52.378;13.404;2023-08-21T09:46:29;2.40;;;2.00;;
18879;SDS011;9572;52.378;13.404;2023-08-21T09:49:00;7.85;;;2.40;;
18879;SDS011;9572;52.378;13.404;2023-08-21T09:51:28;3.85;;;1.90;;
18879;SDS011;9572;52.378;13.404;2023-08-21T09:54:03;2.40;;;0.98;;
18879;SDS011;9572;52.378;13.404;2023-08-21T09:56:31;2.13;;;0.88;;
18879;SDS011;9572;52.378;13.404;2023-08-21T09:58:59;1.90;;;0.90;;
18879;SDS011;9572;52.378;13.404;2023-08-21T10:01:28;3.03;;;0.95;;
18879;SDS011;9572;52.378;13.404;2023-08-21T10:04:00;1.50;;;0.68;;
18879;SDS011;9572;52.378;13.404;2023-08-21T10:06:29;3.38;;;0.93;;
18879;SDS011;9572;52.378;13.404;2023-08-21T10:09:03;2.15;;;0.98;;
18879;SDS011;9572;52.378;13.404;2023-08-21T10:11:32;2.85;;;1.17;;
18879;SDS011;9572;52.378;13.404;2023-08-21T10:13:59;1.73;;;1.00;;
18879;SDS011;9572;52.378;13.404;2023-08-21T10:16:28;1.02;;;0.73;;
18879;SDS011;9572;52.378;13.404;2023-08-21T10:19:00;2.00;;;0.88;;
18879;SDS011;9572;52.378;13.404;2023-08-21T10:21:31;3.08;;;1.08;;
18879;SDS011;9572;52.378;13.404;2023-08-21T10:24:03;2.92;;;1.02;;
18879;SDS011;9572;52.378;13.404;2023-08-21T10:26:30;2.08;;;0.90;;
18879;SDS011;9572;52.378;13.404;2023-08-21T10:28:58;2.25;;;0.90;;
18879;SDS011;9572;52.378;13.404;2023-08-21T10:31:32;1.40;;;0.60;;
18879;SDS011;9572;52.378;13.404;2023-08-21T10:34:01;1.58;;;0.90;;
18879;SDS011;9572;52.378;13.404;2023-08-21T10:36:38;2.45;;;1.15;;
18879;SDS011;9572;52.378;13.404;2023-08-21T10:39:25;1.38;;;0.73;;
18879;SDS011;9572;52.378;13.404;2023-08-21T10:41:56;3.63;;;1.05;;
18879;SDS011;9572;52.378;13.404;2023-08-21T10:47:21;3.30;;;0.93;;
18879;SDS011;9572;52.378;13.404;2023-08-21T10:49:50;2.75;;;0.80;;
18879;SDS011;9572;52.378;13.404;2023-08-21T10:52:21;3.42;;;1.30;;
18879;SDS011;9572;52.378;13.404;2023-08-21T10:54:51;2.45;;;0.90;;
18879;SDS011;9572;52.378;13.404;2023-08-21T10:57:18;2.70;;;0.88;;
18879;SDS011;9572;52.378;13.404;2023-08-21T10:59:49;3.75;;;1.13;;
18879;SDS011;9572;52.378;13.404;2023-08-21T11:02:17;2.53;;;0.90;;
18879;SDS011;9572;52.378;13.404;2023-08-21T11:04:44;3.28;;;0.80;;
18879;SDS011;9572;52.378;13.404;2023-08-21T11:07:11;2.25;;;0.90;;
18879;SDS011;9572;52.378;13.404;2023-08-21T11:09:38;3.20;;;1.08;;
18879;SDS011;9572;52.378;13.404;2023-08-21T11:12:09;2.22;;;0.90;;
18879;SDS011;9572;52.378;13.404;2023-08-21T11:14:37;2.15;;;0.80;;
18879;SDS011;9572;52.378;13.404;2023-08-21T11:17:09;4.53;;;0.73;;
18879;SDS011;9572;52.378;13.404;2023-08-21T11:19:39;2.22;;;0.90;;
18879;SDS011;9572;52.378;13.404;2023-08-21T11:22:08;0.93;;;0.55;;
18879;SDS011;9572;52.378;13.404;2023-08-21T11:24:40;2.28;;;1.02;;
18879;SDS011;9572;52.378;13.404;2023-08-21T11:27:15;2.33;;;1.00;;
18879;SDS011;9572;52.378;13.404;2023-08-21T11:29:52;1.38;;;0.65;;
18879;SDS011;9572;52.378;13.404;2023-08-21T11:32:19;1.92;;;0.80;;
18879;SDS011;9572;52.378;13.404;2023-08-21T11:34:48;1.60;;;0.90;;
18879;SDS011;9572;52.378;13.404;2023-08-21T11:37:17;3.15;;;1.23;;
18879;SDS011;9572;52.378;13.404;2023-08-21T11:39:47;3.75;;;1.17;;
18879;SDS011;9572;52.378;13.404;2023-08-21T11:42:16;3.40;;;0.90;;
18879;SDS011;9572;52.378;13.404;2023-08-21T11:44:43;3.00;;;0.88;;
18879;SDS011;9572;52.378;13.404;2023-08-21T11:47:12;2.17;;;0.70;;
18879;SDS011;9572;52.378;13.404;2023-08-21T11:49:40;3.65;;;1.02;;
18879;SDS011;9572;52.378;13.404;2023-08-21T11:52:08;6.35;;;1.35;;
18879;SDS011;9572;52.378;13.404;2023-08-21T11:54:35;2.67;;;0.82;;
18879;SDS011;9572;52.378;13.404;2023-08-21T11:57:03;3.42;;;1.15;;
18879;SDS011;9572;52.378;13.404;2023-08-21T11:59:33;3.20;;;1.13;;
18879;SDS011;9572;52.378;13.404;2023-08-21T12:02:00;5.10;;;1.20;;
18879;SDS011;9572;52.378;13.404;2023-08-21T12:04:34;4.22;;;0.93;;
18879;SDS011;9572;52.378;13.404;2023-08-21T12:07:00;3.17;;;0.80;;
18879;SDS011;9572;52.378;13.404;2023-08-21T12:09:27;4.13;;;1.00;;
18879;SDS011;9572;52.378;13.404;2023-08-21T12:11:54;6.07;;;1.15;;
18879;SDS011;9572;52.378;13.404;2023-08-21T12:14:22;3.72;;;1.15;;
18879;SDS011;9572;52.378;13.404;2023-08-21T12:16:50;3.28;;;0.90;;
18879;SDS011;9572;52.378;13.404;2023-08-21T12:19:17;2.38;;;0.90;;
18879;SDS011;9572;52.378;13.404;2023-08-21T12:21:44;2.67;;;0.90;;
18879;SDS011;9572;52.378;13.404;2023-08-21T12:24:11;2.47;;;0.90;;
18879;SDS011;9572;52.378;13.404;2023-08-21T12:26:38;2.35;;;0.98;;
18879;SDS011;9572;52.378;13.404;2023-08-21T12:29:05;2.95;;;0.95;;
18879;SDS011;9572;52.378;13.404;2023-08-21T12:31:32;3.58;;;0.88;;
18879;SDS011;9572;52.378;13.404;2023-08-21T12:34:00;3.28;;;0.98;;
18879;SDS011;9572;52.378;13.404;2023-08-21T12:36:28;2.28;;;0.68;;
18879;SDS011;9572;52.378;13.404;2023-08-21T12:38:55;1.33;;;0.85;;
18879;SDS011;9572;52.378;13.404;2023-08-21T12:41:22;2.05;;;1.15;;
18879;SDS011;9572;52.378;13.404;2023-08-21T12:43:49;2.25;;;0.88;;
18879;SDS011;9572;52.378;13.404;2023-08-21T12:46:16;3.88;;;1.15;;
18879;SDS011;9572;52.378;13.404;2023-08-21T12:48:43;4.55;;;1.30;;
18879;SDS011;9572;52.378;13.404;2023-08-21T12:51:11;3.78;;;1.02;;
18879;SDS011;9572;52.378;13.404;2023-08-21T12:53:38;2.40;;;1.02;;
18879;SDS011;9572;52.378;13.404;2023-08-21T12:56:05;10.35;;;1.10;;
18879;SDS011;9572;52.378;13.404;2023-08-21T12:58:32;3.10;;;0.93;;
18879;SDS011;9572;52.378;13.404;2023-08-21T13:00:59;3.05;;;0.80;;
18879;SDS011;9572;52.378;13.404;2023-08-21T13:03:28;1.77;;;1.13;;
18879;SDS011;9572;52.378;13.404;2023-08-21T13:05:55;2.58;;;0.88;;
18879;SDS011;9572;52.378;13.404;2023-08-21T13:08:24;4.38;;;1.05;;
18879;SDS011;9572;52.378;13.404;2023-08-21T13:10:52;2.83;;;0.95;;
18879;SDS011;9572;52.378;13.404;2023-08-21T13:13:19;2.38;;;0.88;;
18879;SDS011;9572;52.378;13.404;2023-08-21T13:15:45;4.20;;;1.15;;
18879;SDS011;9572;52.378;13.404;2023-08-21T13:18:12;4.50;;;1.00;;
18879;SDS011;9572;52.378;13.404;2023-08-21T13:20:40;5.70;;;0.90;;
18879;SDS011;9572;52.378;13.404;2023-08-21T13:23:06;6.18;;;0.95;;
18879;SDS011;9572;52.378;13.404;2023-08-21T13:25:35;5.25;;;1.13;;
18879;SDS011;9572;52.378;13.404;2023-08-21T13:28:02;5.55;;;1.10;;
18879;SDS011;9572;52.378;13.404;2023-08-21T13:30:29;6.10;;;1.35;;
18879;SDS011;9572;52.378;13.404;2023-08-21T13:32:57;2.85;;;0.93;;
18879;SDS011;9572;52.378;13.404;2023-08-21T13:35:23;2.35;;;0.90;;
18879;SDS011;9572;52.378;13.404;2023-08-21T13:37:50;3.03;;;0.90;;
18879;SDS011;9572;52.378;13.404;2023-08-21T13:40:18;3.17;;;0.93;;
18879;SDS011;9572;52.378;13.404;2023-08-21T13:42:47;1.85;;;0.70;;
18879;SDS011;9572;52.378;13.404;2023-08-21T13:45:15;2.47;;;0.80;;
18879;SDS011;9572;52.378;13.404;2023-08-21T13:47:43;3.22;;;0.90;;
18879;SDS011;9572;52.378;13.404;2023-08-21T13:50:12;4.10;;;0.80;;
18879;SDS011;9572;52.378;13.404;2023-08-21T13:52:41;1.92;;;0.80;;
18879;SDS011;9572;52.378;13.404;2023-08-21T13:55:08;3.17;;;0.90;;
18879;SDS011;9572;52.378;13.404;2023-08-21T13:57:36;2.53;;;1.20;;
18879;SDS011;9572;52.378;13.404;2023-08-21T14:00:05;4.75;;;1.00;;
18879;SDS011;9572;52.378;13.404;2023-08-21T14:02:37;1.95;;;1.00;;
18879;SDS011;9572;52.378;13.404;2023-08-21T14:05:05;2.88;;;0.95;;
18879;SDS011;9572;52.378;13.404;2023-08-21T14:07:33;3.25;;;0.80;;
18879;SDS011;9572;52.378;13.404;2023-08-21T14:10:00;6.90;;;1.13;;
18879;SDS011;9572;52.378;13.404;2023-08-21T14:12:29;2.05;;;0.98;;
18879;SDS011;9572;52.378;13.404;2023-08-21T14:14:56;2.55;;;0.95;;
18879;SDS011;9572;52.378;13.404;2023-08-21T14:17:25;3.97;;;0.75;;
18879;SDS011;9572;52.378;13.404;2023-08-21T14:19:52;4.85;;;0.88;;
18879;SDS011;9572;52.378;13.404;2023-08-21T14:22:20;4.63;;;0.80;;
18879;SDS011;9572;52.378;13.404;2023-08-21T14:24:47;2.67;;;0.80;;
18879;SDS011;9572;52.378;13.404;2023-08-21T14:27:14;3.67;;;0.80;;
18879;SDS011;9572;52.378;13.404;2023-08-21T14:29:41;2.42;;;0.73;;
18879;SDS011;9572;52.378;13.404;2023-08-21T14:32:08;2.20;;;0.80;;
18879;SDS011;9572;52.378;13.404;2023-08-21T14:34:37;1.95;;;1.00;;
18879;SDS011;9572;52.378;13.404;2023-08-21T14:37:04;2.58;;;0.77;;
18879;SDS011;9572;52.378;13.404;2023-08-21T14:39:31;3.03;;;0.73;;
18879;SDS011;9572;52.378;13.404;2023-08-21T14:41:59;2.63;;;0.80;;
18879;SDS011;9572;52.378;13.404;2023-08-21T14:44:27;3.47;;;1.10;;
18879;SDS011;9572;52.378;13.404;2023-08-21T14:46:54;2.80;;;0.65;;
18879;SDS011;9572;52.378;13.404;2023-08-21T14:49:23;2.15;;;0.65;;
18879;SDS011;9572;52.378;13.404;2023-08-21T14:51:51;1.92;;;0.88;;